KLRD

Laredo International Airport

Laredo, Texas, USA
METAR KLRD 271156Z AUTO 16010KT 10SM CLR 24/22 A2976 RMK AO2 SLP074 T02440217 10289 20244 55003
Observed Flight Rules
May-27 @ 11:56 UTC (7 minutes ago) Visual Flight Rules
Wind Visibility Clouds
160° at 10 knots 10 miles
  • Clear skies
Temperatures Readings
Current 24°C / 75°F
Dewpoint 22°C / 72°F
Humidity 89%
Altimeter 29.76" Hg
Pressure 1007.4 hPa
Elevation 155
METAR KLRD 271156Z AUTO 16010KT 10SM CLR 24/22 A2976 RMK AO2 SLP074 T02440217 10289 20244 55003
Observed Flight Rules
May-27 @ 11:56 UTC
(7 minutes ago)
VFR
Wind Visibility
160° at 10 knots 10 miles
Clouds
  • Clear skies
Temperature Dewpoint
24°C / 75°F 22°C / 72°F
Humidity Altimeter Pressure
89% 29.76" Hg 1007.4 hPa